createdAt,value
2017-01-13T00:00:03.627Z,44.8
2017-01-13T00:00:36.444Z,44.8
2017-01-13T00:01:09.243Z,44.7
2017-01-13T00:01:42.004Z,44.8
2017-01-13T00:02:14.786Z,44.8
2017-01-13T00:02:47.592Z,45.01
2017-01-13T00:03:20.412Z,44.8
2017-01-13T00:03:53.176Z,45.18
2017-01-13T00:04:26.000Z,45.28
2017-01-13T00:04:58.796Z,45
2017-01-13T00:05:31.622Z,44.8
2017-01-13T00:06:04.382Z,45.01
2017-01-13T00:06:37.184Z,44.8
2017-01-13T00:07:09.949Z,44.9
2017-01-13T00:07:42.711Z,44.8
2017-01-13T00:08:15.478Z,44.8
2017-01-13T00:08:48.291Z,44.8
2017-01-13T00:09:21.068Z,45
2017-01-13T00:09:53.900Z,44.8
2017-01-13T00:10:26.723Z,44.92
2017-01-13T00:10:59.509Z,45.01
2017-01-13T00:11:32.315Z,44.82
2017-01-13T00:12:05.101Z,44.7
2017-01-13T00:12:37.905Z,44.9
2017-01-13T00:13:10.656Z,45
2017-01-13T00:13:43.452Z,44.9
2017-01-13T00:14:16.238Z,44.9
2017-01-13T00:14:49.014Z,44.73
2017-01-13T00:15:21.787Z,45.11
2017-01-13T00:15:54.545Z,44.9
2017-01-13T00:16:27.321Z,44.9
2017-01-13T00:17:00.089Z,44.8
2017-01-13T00:17:32.856Z,45
2017-01-13T00:18:05.654Z,45
2017-01-13T00:18:38.413Z,45
2017-01-13T00:19:11.184Z,44.9
2017-01-13T00:19:43.988Z,44.9
2017-01-13T00:20:16.767Z,44.7
2017-01-13T00:20:49.562Z,44.63
2017-01-13T00:21:22.317Z,44.92
2017-01-13T00:21:55.110Z,44.9
2017-01-13T00:22:27.888Z,44.8
2017-01-13T00:23:00.661Z,45
2017-01-13T00:23:33.424Z,45.28
2017-01-13T00:24:07.086Z,45.01
2017-01-13T00:24:39.867Z,44.9
2017-01-13T00:25:12.684Z,44.51
2017-01-13T00:25:45.450Z,44.61
2017-01-13T00:26:18.279Z,44.9
2017-01-13T00:26:51.042Z,44.61
2017-01-13T00:27:23.804Z,44.61
2017-01-13T00:27:56.633Z,45.3
2017-01-13T00:28:29.390Z,44.63
2017-01-13T00:29:02.153Z,45
2017-01-13T00:29:34.964Z,44.63
2017-01-13T00:30:07.740Z,44.9
2017-01-13T00:30:40.521Z,45
2017-01-13T00:31:13.320Z,45
2017-01-13T00:31:46.113Z,44.61
2017-01-13T00:32:18.882Z,44.9
2017-01-13T00:32:51.656Z,44.63
2017-01-13T00:33:24.465Z,44.92
2017-01-13T00:33:57.250Z,45.09
2017-01-13T00:34:30.920Z,45
2017-01-13T00:35:03.705Z,45.01
2017-01-13T00:35:36.507Z,44.61
2017-01-13T00:36:09.304Z,45
2017-01-13T00:36:42.125Z,44.61
2017-01-13T00:37:14.917Z,45.28
2017-01-13T00:37:47.710Z,45
2017-01-13T00:38:20.515Z,45
2017-01-13T00:38:53.274Z,44.73
2017-01-13T00:39:26.022Z,45.18
2017-01-13T00:39:58.788Z,45
2017-01-13T00:40:31.610Z,44.61
2017-01-13T00:41:04.418Z,44.51
2017-01-13T00:41:37.167Z,44.51
2017-01-13T00:42:09.979Z,45.28
2017-01-13T00:42:42.759Z,44.61
2017-01-13T00:43:15.539Z,44.42
2017-01-13T00:43:48.327Z,44.51
2017-01-13T00:44:21.082Z,44.61
2017-01-13T00:44:53.882Z,45.28
2017-01-13T00:45:26.748Z,45.09
2017-01-13T00:45:59.546Z,44.42
2017-01-13T00:46:32.343Z,44.42
2017-01-13T00:47:05.154Z,44.32
2017-01-13T00:47:37.964Z,45.21
2017-01-13T00:48:10.742Z,45.01
2017-01-13T00:48:43.542Z,44.61
2017-01-13T00:49:16.308Z,44.51
2017-01-13T00:49:49.081Z,44.44
2017-01-13T00:50:21.885Z,45.3
2017-01-13T00:50:54.682Z,44.9
2017-01-13T00:51:27.484Z,44.23
2017-01-13T00:52:00.245Z,44.8
2017-01-13T00:52:33.072Z,45
2017-01-13T00:53:05.876Z,44.54
2017-01-13T00:53:38.670Z,44.42
2017-01-13T00:54:11.474Z,45
2017-01-13T00:54:44.228Z,45
2017-01-13T00:55:16.986Z,45.01
2017-01-13T00:55:49.786Z,44.51
2017-01-13T00:56:22.579Z,44.23
2017-01-13T00:56:55.351Z,45.11
2017-01-13T00:57:28.109Z,44.34
2017-01-13T00:58:00.906Z,44.32
2017-01-13T00:58:33.657Z,45.01
2017-01-13T00:59:06.448Z,44.42
2017-01-13T00:59:39.228Z,44.32
2017-01-13T01:00:12.048Z,45.09
2017-01-13T01:00:44.827Z,44.23
2017-01-13T01:01:17.596Z,45.09
2017-01-13T01:01:50.395Z,45.21
2017-01-13T01:02:23.163Z,44.9
2017-01-13T01:02:55.924Z,44.42
2017-01-13T01:03:28.709Z,44.51
2017-01-13T01:04:01.503Z,45
2017-01-13T01:04:34.278Z,44.42
2017-01-13T01:05:07.078Z,45
2017-01-13T01:05:39.857Z,45
2017-01-13T01:06:12.626Z,44.42
2017-01-13T01:06:45.375Z,45
2017-01-13T01:07:18.187Z,45
2017-01-13T01:07:50.969Z,45.09
2017-01-13T01:08:23.713Z,45
2017-01-13T01:08:56.480Z,45
2017-01-13T01:09:29.271Z,44.51
2017-01-13T01:10:02.046Z,45.09
2017-01-13T01:10:34.815Z,45
2017-01-13T01:11:07.563Z,45
2017-01-13T01:11:40.344Z,44.8
2017-01-13T01:12:13.108Z,44.42
2017-01-13T01:12:45.876Z,44.9
2017-01-13T01:13:18.649Z,44.42
2017-01-13T01:13:51.444Z,44.42
2017-01-13T01:14:24.220Z,44.42
2017-01-13T01:14:57.004Z,44.54
2017-01-13T01:15:29.755Z,45.09
2017-01-13T01:16:02.540Z,44.51
2017-01-13T01:16:35.348Z,44.51
2017-01-13T01:17:08.151Z,44.9
2017-01-13T01:17:40.957Z,45.01
2017-01-13T01:18:13.748Z,44.42
2017-01-13T01:18:46.557Z,45
2017-01-13T01:19:19.336Z,44.51
2017-01-13T01:19:52.103Z,44.9
2017-01-13T01:20:24.881Z,45
2017-01-13T01:20:57.675Z,44.42
2017-01-13T01:21:30.477Z,44.51
2017-01-13T01:22:03.240Z,44.9
2017-01-13T01:22:36.020Z,44.42
2017-01-13T01:23:08.808Z,45
2017-01-13T01:23:41.609Z,44.61
2017-01-13T01:24:14.371Z,44.61
2017-01-13T01:24:47.172Z,44.9
2017-01-13T01:25:19.981Z,44.7
2017-01-13T01:25:52.747Z,44.9
2017-01-13T01:26:25.543Z,44.9
2017-01-13T01:26:58.315Z,45
2017-01-13T01:27:31.094Z,44.63
2017-01-13T01:28:03.875Z,45
2017-01-13T01:28:36.663Z,44.9
2017-01-13T01:29:09.470Z,44.61
2017-01-13T01:29:42.263Z,45
2017-01-13T01:30:15.039Z,45
2017-01-13T01:30:47.818Z,44.61
2017-01-13T01:31:20.605Z,44.51
2017-01-13T01:31:53.384Z,44.7
2017-01-13T01:32:26.176Z,44.7
2017-01-13T01:32:58.959Z,44.51
2017-01-13T01:33:31.763Z,44.7
2017-01-13T01:34:04.563Z,44.61
2017-01-13T01:34:37.366Z,44.51
2017-01-13T01:35:10.167Z,44.61
2017-01-13T01:35:42.960Z,44.61
2017-01-13T01:36:15.755Z,44.7
2017-01-13T01:36:48.535Z,44.51
2017-01-13T01:37:21.295Z,44.51
2017-01-13T01:37:54.061Z,44.61
2017-01-13T01:38:26.863Z,44.61
2017-01-13T01:38:59.621Z,44.61
2017-01-13T01:39:32.415Z,44.51
2017-01-13T01:40:05.160Z,44.61
2017-01-13T01:40:37.956Z,44.7
2017-01-13T01:41:10.734Z,44.51
2017-01-13T01:41:43.526Z,44.61
2017-01-13T01:42:16.328Z,44.51
2017-01-13T01:42:49.132Z,44.61
2017-01-13T01:43:21.960Z,44.61
2017-01-13T01:43:54.737Z,44.24
2017-01-13T01:44:27.503Z,44.51
2017-01-13T01:45:00.342Z,44.34
2017-01-13T01:45:33.186Z,44.23
2017-01-13T01:46:05.938Z,44.32
2017-01-13T01:46:38.683Z,44.32
2017-01-13T01:47:11.482Z,44.32
2017-01-13T01:47:44.279Z,44.23
2017-01-13T01:48:17.055Z,44.32
2017-01-13T01:48:49.801Z,44.32
2017-01-13T01:49:22.612Z,44.44
2017-01-13T01:49:55.389Z,44.13
2017-01-13T01:50:28.150Z,44.42
2017-01-13T01:51:00.898Z,44.23
2017-01-13T01:51:33.676Z,44.32
2017-01-13T01:52:06.446Z,44.34
2017-01-13T01:52:39.205Z,44.32
2017-01-13T01:53:11.972Z,44.61
2017-01-13T01:53:44.770Z,44.61
2017-01-13T01:54:17.560Z,44.32
2017-01-13T01:54:50.370Z,44.32
2017-01-13T01:55:23.122Z,44.44
2017-01-13T01:55:55.895Z,44.32
2017-01-13T01:56:28.669Z,44.32
2017-01-13T01:57:01.434Z,44.32
2017-01-13T01:57:34.223Z,44.32
2017-01-13T01:58:06.995Z,44.42
2017-01-13T01:58:39.804Z,44.23
2017-01-13T01:59:12.615Z,44.32
2017-01-13T01:59:45.459Z,44.13
2017-01-13T02:00:18.267Z,44.42
2017-01-13T02:00:51.062Z,44.32
2017-01-13T02:01:23.858Z,44.42
2017-01-13T02:01:56.662Z,44.13
2017-01-13T02:02:29.472Z,44.13
2017-01-13T02:03:02.248Z,44.44
2017-01-13T02:03:35.037Z,44.03
2017-01-13T02:04:07.827Z,44.13
2017-01-13T02:04:40.586Z,44.13
2017-01-13T02:05:13.346Z,44.32
2017-01-13T02:05:46.104Z,44.32
2017-01-13T02:06:18.879Z,44.13
2017-01-13T02:06:51.634Z,44.51
2017-01-13T02:07:24.408Z,44.32
2017-01-13T02:07:57.172Z,44.15
2017-01-13T02:08:29.943Z,44.24
2017-01-13T02:09:02.691Z,44.32
2017-01-13T02:09:35.453Z,44.13
2017-01-13T02:10:08.244Z,44.34
2017-01-13T02:10:41.023Z,44.34
2017-01-13T02:11:13.811Z,44.42
2017-01-13T02:11:46.621Z,44.42
2017-01-13T02:12:19.412Z,44.03
2017-01-13T02:12:52.232Z,44.42
2017-01-13T02:13:25.023Z,44.03
2017-01-13T02:13:57.810Z,44.51
2017-01-13T02:14:30.634Z,44.51
2017-01-13T02:15:03.403Z,44.15
2017-01-13T02:15:36.226Z,44.44
2017-01-13T02:16:09.085Z,44.42
2017-01-13T02:16:41.851Z,44.03
2017-01-13T02:17:14.637Z,44.42
2017-01-13T02:17:47.385Z,44.42
2017-01-13T02:18:20.150Z,44.06
2017-01-13T02:18:52.950Z,44.13
2017-01-13T02:19:25.708Z,44.15
2017-01-13T02:19:58.517Z,44.44
2017-01-13T02:20:31.293Z,44.13
2017-01-13T02:21:04.107Z,44.24
2017-01-13T02:21:36.847Z,44.13
2017-01-13T02:22:09.622Z,44.15
2017-01-13T02:22:42.412Z,44.44
2017-01-13T02:23:15.173Z,44.42
2017-01-13T02:23:47.976Z,44.13
2017-01-13T02:24:20.791Z,43.96
2017-01-13T02:24:53.613Z,44.42
2017-01-13T02:25:26.412Z,44.51
2017-01-13T02:25:59.174Z,44.03
2017-01-13T02:26:31.965Z,44.32
2017-01-13T02:27:04.733Z,43.94
2017-01-13T02:27:37.509Z,44.06
2017-01-13T02:28:10.318Z,44.42
2017-01-13T02:28:43.057Z,44.13
2017-01-13T02:29:15.826Z,44.42
2017-01-13T02:29:48.617Z,43.96
2017-01-13T02:30:21.364Z,44.34
2017-01-13T02:30:54.194Z,44.44
2017-01-13T02:31:26.942Z,43.96
2017-01-13T02:31:59.734Z,44.34
2017-01-13T02:32:32.516Z,44.32
2017-01-13T02:33:05.323Z,44.34
2017-01-13T02:33:38.216Z,44.42
2017-01-13T02:34:10.990Z,44.42
2017-01-13T02:34:43.782Z,44.42
2017-01-13T02:35:16.534Z,44.34
2017-01-13T02:35:49.341Z,43.87
2017-01-13T02:36:22.174Z,44.44
2017-01-13T02:36:54.984Z,43.96
2017-01-13T02:37:27.782Z,44.34
2017-01-13T02:38:00.536Z,44.51
2017-01-13T02:38:33.321Z,44.03
2017-01-13T02:39:06.097Z,44.42
2017-01-13T02:39:38.871Z,44.03
2017-01-13T02:40:11.629Z,44.42
2017-01-13T02:40:44.399Z,44.51
2017-01-13T02:41:17.203Z,44.06
2017-01-13T02:41:49.998Z,44.15
2017-01-13T02:42:22.759Z,44.06
2017-01-13T02:42:55.562Z,44.54
2017-01-13T02:43:28.338Z,44.51
2017-01-13T02:44:01.108Z,44.54
2017-01-13T02:44:33.943Z,44.54
2017-01-13T02:45:06.778Z,44.42
2017-01-13T02:45:39.560Z,44.15
2017-01-13T02:46:12.310Z,44.44
2017-01-13T02:46:45.053Z,43.96
2017-01-13T02:47:17.860Z,44.54
2017-01-13T02:47:50.619Z,44.51
2017-01-13T02:48:23.383Z,43.84
2017-01-13T02:48:56.149Z,44.51
2017-01-13T02:49:28.971Z,44.32
2017-01-13T02:50:01.746Z,44.54
2017-01-13T02:50:34.780Z,44.06
2017-01-13T02:51:08.159Z,43.96
2017-01-13T02:51:41.498Z,43.77
2017-01-13T02:52:14.350Z,44.44
2017-01-13T02:52:47.352Z,44.24
2017-01-13T02:53:20.284Z,44.42
2017-01-13T02:53:53.057Z,44.42
2017-01-13T02:54:25.797Z,44.24
2017-01-13T02:54:58.563Z,44.44
2017-01-13T02:55:31.321Z,43.77
2017-01-13T02:56:04.111Z,44.44
2017-01-13T02:56:36.866Z,44.42
2017-01-13T02:57:09.640Z,44.34
2017-01-13T02:57:42.407Z,44.42
2017-01-13T02:58:15.169Z,44.34
2017-01-13T02:58:47.937Z,44.24
2017-01-13T02:59:20.704Z,44.34
2017-01-13T02:59:53.467Z,44.03
2017-01-13T03:00:26.215Z,44.24
2017-01-13T03:00:58.979Z,44.34
2017-01-13T03:01:31.756Z,44.34
2017-01-13T03:02:04.544Z,44.34
2017-01-13T03:02:37.341Z,43.84
2017-01-13T03:03:10.146Z,44.44
2017-01-13T03:03:42.924Z,44.44
2017-01-13T03:04:15.735Z,44.23
2017-01-13T03:04:48.513Z,44.24
2017-01-13T03:05:21.317Z,44.42
2017-01-13T03:05:54.102Z,44.51
2017-01-13T03:06:26.868Z,44.34
2017-01-13T03:06:59.666Z,44.44
2017-01-13T03:07:32.438Z,43.84
2017-01-13T03:08:05.187Z,43.96
2017-01-13T03:08:37.954Z,43.87
2017-01-13T03:09:10.739Z,43.87
2017-01-13T03:09:43.539Z,44.34
2017-01-13T03:10:16.322Z,43.96
2017-01-13T03:10:49.070Z,44.24
2017-01-13T03:11:21.867Z,44.44
2017-01-13T03:11:54.649Z,44.44
2017-01-13T03:12:27.412Z,44.34
2017-01-13T03:13:00.191Z,43.87
2017-01-13T03:13:32.957Z,44.32
2017-01-13T03:14:05.728Z,44.44
2017-01-13T03:14:38.507Z,43.94
2017-01-13T03:15:11.272Z,44.32
2017-01-13T03:15:44.039Z,44.44
2017-01-13T03:16:16.818Z,44.34
2017-01-13T03:16:49.607Z,44.34
2017-01-13T03:17:22.411Z,44.34
2017-01-13T03:17:55.203Z,44.34
2017-01-13T03:18:27.958Z,44.34
2017-01-13T03:19:00.727Z,44.32
2017-01-13T03:19:33.493Z,44.34
2017-01-13T03:20:06.276Z,43.87
2017-01-13T03:20:39.029Z,44.42
2017-01-13T03:21:11.823Z,44.15
2017-01-13T03:21:44.592Z,44.24
2017-01-13T03:22:17.358Z,44.44
2017-01-13T03:22:50.162Z,43.94
2017-01-13T03:23:22.925Z,43.96
2017-01-13T03:23:55.694Z,44.24
2017-01-13T03:24:28.450Z,44.32
2017-01-13T03:25:01.247Z,44.24
2017-01-13T03:25:34.061Z,44.06
2017-01-13T03:26:06.856Z,44.24
2017-01-13T03:26:39.655Z,44.15
2017-01-13T03:27:12.425Z,44.44
2017-01-13T03:27:45.205Z,44.23
2017-01-13T03:28:17.994Z,44.24
2017-01-13T03:28:50.784Z,44.15
2017-01-13T03:29:23.587Z,44.24
2017-01-13T03:29:56.383Z,44.15
2017-01-13T03:30:29.154Z,43.87
2017-01-13T03:31:01.913Z,44.24
2017-01-13T03:31:34.709Z,44.24
2017-01-13T03:32:07.501Z,44.15
2017-01-13T03:32:40.229Z,43.84
2017-01-13T03:33:12.996Z,44.06
2017-01-13T03:33:45.750Z,44.34
2017-01-13T03:34:18.526Z,44.15
2017-01-13T03:34:51.296Z,44.24
2017-01-13T03:35:24.045Z,44.13
2017-01-13T03:35:56.800Z,44.23
2017-01-13T03:36:29.534Z,44.24
2017-01-13T03:37:02.387Z,44.24
2017-01-13T03:37:35.190Z,44.24
2017-01-13T03:38:07.924Z,44.24
2017-01-13T03:38:40.731Z,44.24
2017-01-13T03:39:13.503Z,44.24
2017-01-13T03:39:46.304Z,44.24
2017-01-13T03:40:19.046Z,44.24
2017-01-13T03:40:51.815Z,44.15
2017-01-13T03:41:24.565Z,44.15
2017-01-13T03:41:57.341Z,44.15
2017-01-13T03:42:30.105Z,44.24
2017-01-13T03:43:02.888Z,43.77
2017-01-13T03:43:35.705Z,44.15
2017-01-13T03:44:08.462Z,43.96
2017-01-13T03:44:41.257Z,44.24
2017-01-13T03:45:14.007Z,43.87
2017-01-13T03:45:46.785Z,44.15
2017-01-13T03:46:19.563Z,44.24
2017-01-13T03:46:52.350Z,43.87
2017-01-13T03:47:25.216Z,44.15
2017-01-13T03:47:58.028Z,44.15
2017-01-13T03:48:30.799Z,44.15
2017-01-13T03:49:03.598Z,43.87
2017-01-13T03:49:36.400Z,44.24
2017-01-13T03:50:09.169Z,44.24
2017-01-13T03:50:41.947Z,43.96
2017-01-13T03:51:14.719Z,44.34
2017-01-13T03:51:47.499Z,44.24
2017-01-13T03:52:20.273Z,44.15
2017-01-13T03:52:53.044Z,44.34
2017-01-13T03:53:25.779Z,43.67
2017-01-13T03:53:58.584Z,44.15
2017-01-13T03:54:31.357Z,44.15
2017-01-13T03:55:04.140Z,44.24
2017-01-13T03:55:36.930Z,44.24
2017-01-13T03:56:09.680Z,44.24
2017-01-13T03:56:42.437Z,44.24
2017-01-13T03:57:15.236Z,44.24
2017-01-13T03:57:48.030Z,43.87
2017-01-13T03:58:20.872Z,43.77
2017-01-13T03:58:53.684Z,44.24
2017-01-13T03:59:26.477Z,44.34
2017-01-13T03:59:59.275Z,44.34
2017-01-13T04:00:32.051Z,44.34
2017-01-13T04:01:04.778Z,44.24
2017-01-13T04:01:38.174Z,44.06
2017-01-13T04:02:10.966Z,44.34
2017-01-13T04:02:43.754Z,44.24
2017-01-13T04:03:16.546Z,44.24
2017-01-13T04:03:49.337Z,44.34
2017-01-13T04:04:22.082Z,44.06
2017-01-13T04:04:54.861Z,44.06
2017-01-13T04:05:27.665Z,44.34
2017-01-13T04:06:00.406Z,44.06
2017-01-13T04:06:33.175Z,43.87
2017-01-13T04:07:05.988Z,44.34
2017-01-13T04:07:38.754Z,44.34
2017-01-13T04:08:11.535Z,44.24
2017-01-13T04:08:44.307Z,44.06
2017-01-13T04:09:17.096Z,44.24
2017-01-13T04:09:49.867Z,43.87
2017-01-13T04:10:22.665Z,44.24
2017-01-13T04:10:55.487Z,43.67
2017-01-13T04:11:28.317Z,44.06
2017-01-13T04:12:01.121Z,44.15
2017-01-13T04:12:33.891Z,44.24
2017-01-13T04:13:06.678Z,44.15
2017-01-13T04:13:39.446Z,44.15
2017-01-13T04:14:12.220Z,44.15
2017-01-13T04:14:45.020Z,44.15
2017-01-13T04:15:17.794Z,44.15
2017-01-13T04:15:50.546Z,44.34
2017-01-13T04:16:23.314Z,44.24
2017-01-13T04:16:56.089Z,44.24
2017-01-13T04:17:28.905Z,44.24
2017-01-13T04:18:01.697Z,44.34
2017-01-13T04:18:34.438Z,43.96
2017-01-13T04:19:07.246Z,44.15
2017-01-13T04:19:40.015Z,44.34
2017-01-13T04:20:12.777Z,44.13
2017-01-13T04:20:45.548Z,44.15
2017-01-13T04:21:18.284Z,44.06
2017-01-13T04:21:51.080Z,44.15
2017-01-13T04:22:23.901Z,44.23
2017-01-13T04:22:56.708Z,44.06
2017-01-13T04:23:29.510Z,44.06
2017-01-13T04:24:02.281Z,44.06
2017-01-13T04:24:35.041Z,43.96
2017-01-13T04:25:07.841Z,43.87
2017-01-13T04:25:40.659Z,43.87
2017-01-13T04:26:13.482Z,44.15
2017-01-13T04:26:46.253Z,44.15
2017-01-13T04:27:19.024Z,44.06
2017-01-13T04:27:51.777Z,44.06
2017-01-13T04:28:24.539Z,44.15
2017-01-13T04:28:57.345Z,44.06
2017-01-13T04:29:30.183Z,44.06
2017-01-13T04:30:02.953Z,44.06
2017-01-13T04:30:35.733Z,44.06
2017-01-13T04:31:08.519Z,43.96
2017-01-13T04:31:41.332Z,43.96
2017-01-13T04:32:14.167Z,44.03
2017-01-13T04:32:46.951Z,43.87
2017-01-13T04:33:19.748Z,44.06
2017-01-13T04:33:52.594Z,43.96
2017-01-13T04:34:25.362Z,43.96
2017-01-13T04:34:58.188Z,43.87
2017-01-13T04:35:30.981Z,43.77
2017-01-13T04:36:03.735Z,44.15
2017-01-13T04:36:36.511Z,44.06
2017-01-13T04:37:09.332Z,43.96
2017-01-13T04:37:42.079Z,44.06
2017-01-13T04:38:14.836Z,43.96
2017-01-13T04:38:47.592Z,44.15
2017-01-13T04:39:20.379Z,43.96
2017-01-13T04:39:53.200Z,43.87
2017-01-13T04:40:25.935Z,43.67
2017-01-13T04:40:58.703Z,44.06
2017-01-13T04:41:31.503Z,44.06
2017-01-13T04:42:04.283Z,44.06
2017-01-13T04:42:37.031Z,43.57
2017-01-13T04:43:09.819Z,43.96
2017-01-13T04:43:42.631Z,44.06
2017-01-13T04:44:15.424Z,44.06
2017-01-13T04:44:48.223Z,44.15
2017-01-13T04:45:20.983Z,43.57
2017-01-13T04:45:53.759Z,43.57
2017-01-13T04:46:26.543Z,43.57
2017-01-13T04:46:59.340Z,43.77
2017-01-13T04:47:32.122Z,44.15
2017-01-13T04:48:04.911Z,44.06
2017-01-13T04:48:37.680Z,43.77
2017-01-13T04:49:10.473Z,44.15
2017-01-13T04:49:43.279Z,44.15
2017-01-13T04:50:16.088Z,43.87
2017-01-13T04:50:48.901Z,43.67
2017-01-13T04:51:21.659Z,43.87
2017-01-13T04:51:54.415Z,43.87
2017-01-13T04:52:27.183Z,43.87
2017-01-13T04:52:59.972Z,43.87
2017-01-13T04:53:32.751Z,43.77
2017-01-13T04:54:05.507Z,43.96
2017-01-13T04:54:38.283Z,43.96
2017-01-13T04:55:11.057Z,43.96
2017-01-13T04:55:43.841Z,43.96
2017-01-13T04:56:16.623Z,43.87
2017-01-13T04:56:49.410Z,43.96
2017-01-13T04:57:22.204Z,43.77
2017-01-13T04:57:54.968Z,43.77
2017-01-13T04:58:27.721Z,43.87
2017-01-13T04:59:00.510Z,43.87
2017-01-13T04:59:33.300Z,43.87
2017-01-13T05:00:06.091Z,43.87
2017-01-13T05:00:38.871Z,43.96
2017-01-13T05:01:11.632Z,43.87
2017-01-13T05:01:44.395Z,43.96
2017-01-13T05:02:17.189Z,43.87
2017-01-13T05:02:49.996Z,43.87
2017-01-13T05:03:22.801Z,44.06
2017-01-13T05:03:55.592Z,44.06
2017-01-13T05:04:28.365Z,43.96
2017-01-13T05:05:01.155Z,43.48
2017-01-13T05:05:33.955Z,43.57
2017-01-13T05:06:06.726Z,43.87
2017-01-13T05:06:39.495Z,43.38
2017-01-13T05:07:12.264Z,43.48
2017-01-13T05:07:45.007Z,43.57
2017-01-13T05:08:17.798Z,43.96
2017-01-13T05:08:50.581Z,43.67
2017-01-13T05:09:23.348Z,43.87
2017-01-13T05:09:56.131Z,43.67
2017-01-13T05:10:28.925Z,43.87
2017-01-13T05:11:01.698Z,43.67
2017-01-13T05:11:34.482Z,43.38
2017-01-13T05:12:07.259Z,43.48
2017-01-13T05:12:40.038Z,43.77
2017-01-13T05:13:12.814Z,43.29
2017-01-13T05:13:45.576Z,43.77
2017-01-13T05:14:18.361Z,43.77
2017-01-13T05:14:51.130Z,43.77
2017-01-13T05:15:23.898Z,43.77
2017-01-13T05:15:56.652Z,43.48
2017-01-13T05:16:29.443Z,43.87
2017-01-13T05:17:02.204Z,43.57
2017-01-13T05:17:34.987Z,43.48
2017-01-13T05:18:07.805Z,43.48
2017-01-13T05:18:40.596Z,43.48
2017-01-13T05:19:13.384Z,43.57
2017-01-13T05:19:46.167Z,43.48
2017-01-13T05:20:18.949Z,43.48
2017-01-13T05:20:51.711Z,43.48
2017-01-13T05:21:24.490Z,43.48
2017-01-13T05:21:57.286Z,43.57
2017-01-13T05:22:30.045Z,43.48
2017-01-13T05:23:02.863Z,43.57
2017-01-13T05:23:35.632Z,43.57
2017-01-13T05:24:08.627Z,43.57
2017-01-13T05:24:41.374Z,43.57
2017-01-13T05:25:14.166Z,43.67
2017-01-13T05:25:46.943Z,43.48
2017-01-13T05:26:19.741Z,43.57
2017-01-13T05:26:52.491Z,43.57
2017-01-13T05:27:25.292Z,43.57
2017-01-13T05:27:59.046Z,43.48
2017-01-13T05:28:31.781Z,43.38
2017-01-13T05:29:04.660Z,43.48
2017-01-13T05:29:37.433Z,43.67
2017-01-13T05:30:10.206Z,43.48
2017-01-13T05:30:42.991Z,43.38
2017-01-13T05:31:15.761Z,43.48
2017-01-13T05:31:48.532Z,43.57
2017-01-13T05:32:21.316Z,43.38
2017-01-13T05:32:54.088Z,43.38
2017-01-13T05:33:26.877Z,43.38
2017-01-13T05:33:59.659Z,43.38
2017-01-13T05:34:32.428Z,43.38
2017-01-13T05:35:05.179Z,43.38
2017-01-13T05:35:37.948Z,43.48
2017-01-13T05:36:10.690Z,43.48
2017-01-13T05:36:43.477Z,43.77
2017-01-13T05:37:18.854Z,43.38
2017-01-13T05:37:51.657Z,43.67
2017-01-13T05:38:24.421Z,43.77
2017-01-13T05:38:57.223Z,43.57
2017-01-13T05:39:30.041Z,43.77
2017-01-13T05:40:02.795Z,43.77
2017-01-13T05:40:35.571Z,43.67
2017-01-13T05:41:08.351Z,43.57
2017-01-13T05:41:41.199Z,43.48
2017-01-13T05:42:13.999Z,43.57
2017-01-13T05:42:46.739Z,43.19
2017-01-13T05:43:19.487Z,43.19
2017-01-13T05:43:52.283Z,43.67
2017-01-13T05:44:25.084Z,43.77
2017-01-13T05:44:57.852Z,43.77
2017-01-13T05:45:30.614Z,43.19
2017-01-13T05:46:03.420Z,43.67
2017-01-13T05:46:36.245Z,43.77
2017-01-13T05:47:09.044Z,43.48
2017-01-13T05:47:41.835Z,43.38
2017-01-13T05:48:14.638Z,43.38
2017-01-13T05:48:47.435Z,43.29
2017-01-13T05:49:20.245Z,43.29
2017-01-13T05:49:53.014Z,43.29
2017-01-13T05:50:25.786Z,43.19
2017-01-13T05:50:58.580Z,43.48
2017-01-13T05:51:31.412Z,43.19
2017-01-13T05:52:04.210Z,43.48
2017-01-13T05:52:37.009Z,43.19
2017-01-13T05:53:09.821Z,43.19
2017-01-13T05:53:42.613Z,43.38
2017-01-13T05:54:15.380Z,43.48
2017-01-13T05:54:48.157Z,43.38
2017-01-13T05:55:20.928Z,43.38
2017-01-13T05:55:53.729Z,43.38
2017-01-13T05:56:26.536Z,42.9
2017-01-13T05:56:59.319Z,43.38
2017-01-13T05:57:32.086Z,43.29
2017-01-13T05:58:04.857Z,43
2017-01-13T05:59:57.185Z,43.29
2017-01-13T06:00:29.982Z,43
2017-01-13T06:01:02.780Z,43.1
2017-01-13T06:01:35.546Z,43.29
2017-01-13T06:02:08.367Z,43.29
2017-01-13T06:02:41.258Z,43.19
2017-01-13T06:03:14.783Z,43.48
2017-01-13T06:03:47.591Z,43
2017-01-13T06:04:20.385Z,43.1
2017-01-13T06:04:53.167Z,43.38
2017-01-13T06:05:25.969Z,43.29
2017-01-13T06:05:58.714Z,43.19
2017-01-13T06:06:31.491Z,43
2017-01-13T06:07:04.237Z,43
2017-01-13T06:07:37.019Z,43.29
2017-01-13T06:08:09.820Z,43.38
2017-01-13T06:08:42.647Z,43
2017-01-13T06:09:15.445Z,43
2017-01-13T06:09:48.348Z,43.29
2017-01-13T06:10:21.737Z,43.1
2017-01-13T06:10:54.536Z,43.1
2017-01-13T06:11:27.338Z,43.1
2017-01-13T06:12:00.107Z,43.1
2017-01-13T06:12:32.882Z,43.1
2017-01-13T06:13:05.643Z,43.1
2017-01-13T06:13:38.418Z,43.19
2017-01-13T06:14:11.543Z,43.19
2017-01-13T06:14:44.650Z,43.1
2017-01-13T06:15:17.433Z,43.29
2017-01-13T06:15:50.678Z,43.19
2017-01-13T06:16:23.485Z,43.19
2017-01-13T06:16:56.277Z,43.1
2017-01-13T06:17:29.146Z,43.1
2017-01-13T06:18:02.128Z,43.1
2017-01-13T06:18:35.184Z,43.1
2017-01-13T06:19:08.697Z,43.1
2017-01-13T06:19:41.470Z,43
2017-01-13T06:20:14.253Z,43.1
2017-01-13T06:20:48.117Z,43.19
2017-01-13T06:21:20.899Z,43.1
2017-01-13T06:21:53.885Z,43.1
2017-01-13T06:22:27.165Z,43.29
2017-01-13T06:23:00.000Z,43.29
2017-01-13T06:23:32.773Z,43.1
2017-01-13T06:24:05.565Z,43
2017-01-13T06:24:38.367Z,43.1
2017-01-13T06:25:11.160Z,43.19
2017-01-13T06:25:43.927Z,43
2017-01-13T06:26:16.686Z,43.1
2017-01-13T06:26:49.454Z,43.29
2017-01-13T06:27:22.212Z,43.19
2017-01-13T06:29:14.303Z,43.19
2017-01-13T06:29:47.088Z,43.19
2017-01-13T06:30:19.876Z,43.38
2017-01-13T06:30:52.662Z,43.38
2017-01-13T06:31:25.489Z,43.1
2017-01-13T06:31:58.261Z,42.9
2017-01-13T06:32:31.044Z,43.38
2017-01-13T06:33:03.837Z,43.29
2017-01-13T06:33:36.627Z,43.19
2017-01-13T06:34:09.418Z,43.1
2017-01-13T06:34:42.172Z,42.9
2017-01-13T06:35:14.951Z,42.9
2017-01-13T06:35:47.736Z,43.1
2017-01-13T06:36:20.553Z,43.38
2017-01-13T06:36:53.385Z,43.29
2017-01-13T06:37:26.173Z,43.1
2017-01-13T06:37:59.011Z,43.1
2017-01-13T06:38:31.801Z,43
2017-01-13T06:39:04.553Z,43.38
2017-01-13T06:39:37.318Z,43.38
2017-01-13T06:40:10.072Z,43
2017-01-13T06:40:42.863Z,43.1
2017-01-13T06:41:15.888Z,43.29
2017-01-13T06:41:49.023Z,42.9
2017-01-13T06:42:21.826Z,43.29
2017-01-13T06:42:54.606Z,43.29
2017-01-13T06:43:27.372Z,43.29
2017-01-13T06:44:00.150Z,43.29
2017-01-13T06:44:32.981Z,43.19
2017-01-13T06:45:05.800Z,43.1
2017-01-13T06:45:44.149Z,43.29
2017-01-13T06:46:20.347Z,43.19
2017-01-13T06:46:53.273Z,43.19
2017-01-13T06:48:45.359Z,43.38
2017-01-13T06:49:18.155Z,43.19
2017-01-13T06:49:51.065Z,43.1
2017-01-13T06:50:24.115Z,43.19
2017-01-13T06:50:58.296Z,43.19
2017-01-13T06:51:31.416Z,43.38
2017-01-13T06:52:04.805Z,43.29
2017-01-13T06:52:37.586Z,43.19
2017-01-13T06:53:14.221Z,43.29
2017-01-13T06:55:36.766Z,43.19
2017-01-13T06:56:09.571Z,43.29
2017-01-13T06:56:42.391Z,42.9
2017-01-13T06:57:15.207Z,43
2017-01-13T06:57:49.083Z,43.1
2017-01-13T06:58:30.283Z,43.19
2017-01-13T06:59:16.197Z,43.19
2017-01-13T07:00:07.637Z,43.1
2017-01-13T07:00:59.268Z,43.1
2017-01-13T07:03:18.689Z,43.19
2017-01-13T07:03:51.540Z,43.1
2017-01-13T07:04:24.365Z,43.1
2017-01-13T07:04:57.460Z,43.19
2017-01-13T07:05:36.065Z,43.29
2017-01-13T07:06:14.217Z,43.38
2017-01-13T07:07:00.698Z,43.1
2017-01-13T07:07:55.700Z,43.1
2017-01-13T07:08:49.237Z,43.1
2017-01-13T07:09:38.208Z,43.1
2017-01-13T07:10:20.583Z,43.1
2017-01-13T07:11:02.358Z,43.1
2017-01-13T07:11:44.717Z,43.29
2017-01-13T07:12:25.185Z,42.9
2017-01-13T07:13:07.652Z,43.19
2017-01-13T07:13:50.597Z,43.29
2017-01-13T07:14:31.139Z,43.1
2017-01-13T07:15:13.580Z,43.19
2017-01-13T07:16:07.068Z,43
2017-01-13T07:16:52.600Z,42.9
2017-01-13T07:17:38.673Z,43.1
2017-01-13T07:18:17.592Z,43.1
2017-01-13T07:21:03.867Z,43.29